Relevés horaires Spa / La Sauveniere (Belgique)


Relevés horaires à Spa / La Sauveniere - Dimanche 15 Sept. 2019
Heure UTC1 Température [°C] Vent [km/h] Hum. [%] Pres.4 [hPa] Visi. [Km] Nébu. [octa] Préc.5 [mm] Cond.
2m. Res. Ros. Dir.2 Vit. Moy. Raf.3
23:00 12.4 12.4 5.5 ESE 1.9 1.9 1.9 63 1023.5(-0.4/3h) 35 0/8 -- --
22:00 13.0 13.0 5.7 SE 1.9 1.9 1.9 61 1023.6(0.1/3h) 40 0/8 -- --
21:00 12.5 12.5 5.0 S 1.9 1.9 3.7 60 1023.7(0.0/3h) 45 0/8 -- --
20:00 13.4 13.4 4.8 NNO 0.0 1.9 3.7 56 1023.7(0.4/3h) 45 0/8 -- --
19:00 13.8 13.8 4.2 S 1.9 1.9 1.9 52 1023.5(0.0/3h) 45 0/8 -- --
18:00 16.8 16.8 5.9 NNO 0.0 5.6 11.1 49 1022.9(-0.4/3h) 35 0/8 0/12h
--
17:00 20.7 20.7 6.5 NO 3.7 5.6 7.4 40 1021.9(-1.1/3h) 35 0/8 -- --
16:00 20.9 20.9 5.7 O 3.7 5.6 9.3 37 1022.1(-1.5/3h) 30 0/8 -- --
15:00 21.5 21.5 5.6 ONO 3.7 5.6 11.1 35 1022.4(-1.5/3h) 40 0/8 -- --
14:00 20.9 20.9 7.6 NO 5.6 5.6 11.1 42 1023(-1.1/3h) 35 0/8 -- --
13:00 20.6 20.6 7.9 ONO 3.7 5.6 9.3 44 1023.7(-0.8/3h) 30 0/8 -- --
12:00 19.3 19.3 7.4 O 5.6 5.6 11.1 46 1024.3(-0.3/3h) 30 0/8 0/6h
--
11:00 18.9 18.9 7.7 NO 3.7 5.6 11.1 48 1024.6(0.1/3h) 35 0/8 -- --
10:00 17.8 17.8 8.7 ONO 5.6 5.6 9.3 55 1025(0.3/3h) 30 0/8 -- --
09:00 17.0 17.0 8.9 NO 3.7 3.7 7.4 59 1025.1(0.1/3h) 30 0/8 -- --
08:00 16.7 16.7 11.1 O 3.7 3.7 7.4 70 1025(0.0/3h) 45 0/8 -- --
07:00 14.5 14.5 9.6 SO 3.7 3.7 7.4 72 1025.4(0.2/3h) 35 0/8 -- --
06:00 13.8 13.8 8.7 OSO 3.7 11.1 13.0 71 1025.6(-0.4/3h) 45 0/8 0/12h
--
05:00 13.7 13.7 8.3 SO 5.6 5.6 7.4 70 1025.6(-0.7/3h) 45 0/8 -- --
04:00 13.6 13.6 7.8 SSO 5.6 9.3 11.1 68 1025.8(-0.9/3h) 45 0/8 -- --
03:00 13.9 13.4 7.7 S 9.3 11.1 13.0 66 1026(-1.0/3h) 45 0/8 -- --
02:00 13.5 12.9 6.9 S 9.3 11.1 13.0 64 1026.4(-1.0/3h) 45 0/8 -- --
01:00 13.8 13.6 6.8 SSE 7.4 9.3 13.0 63 1026.7(-1.6/3h) 45 0/8 -- --
00:00 13.8 13.3 6.6 SSE 9.3 11.1 13.0 62 1027.1(-1.5/3h) 45 0/8 0/6h
0/24h
--

1 Coordinated Universal Time. Actuellement il est 00:00 locale et 22:00 UTC.

2 Le vent souffle depuis la direction indiquée vers la direction oposée.

3 Les rafales max. sont disponible 40 min après l'heure du relevé.

4 Pour les stations d'altitude (plus de 600m) le géopotentiel du niveau le plus proche de la pression obligatoire est indiqué.

5 Les stations disposant d'un diffuseur peuvent indiquer "trace". Cela signifie que des précipitations ont touchés le sol mais que la quantité est inférieure à 0.1 mm.

Récapitulatif de la journée
Température [°C] Vent [km/h] Ensoleillement4 [h] Precipitations totale5 [mm] Pression [Hpa]
Min1 Max.2 Moy.3 Max. Min Max.
12.6 21.7 5.8 13.0 0 h 0 min 0 1021.9 1027.1

1 Température minimale relevée entre 18:00 UTC la veille et 18:00 UTC le jour donné.

2 Température maximale relevée entre 06:00 UTC le jour donné et 06:00 UTC le lendemain.

3 Vent moyen de la journée basé sur les relevés horaires.

4 Ensoleillement en heures relevé entre 06:00 UTC la veille et 06:00 UTC le jour donné.

5 Précipitations totales tombées entre 06:00 UTC la jour donné et 06:00 UTC le lendemain.

Graphiques horaires